createdAt,value
2023-03-19T00:01:05.705Z,101150.22
2023-03-19T00:03:35.287Z,101147.62
2023-03-19T00:06:04.106Z,101141.63
2023-03-19T00:08:32.076Z,101140.84
2023-03-19T00:11:07.229Z,101134.81
2023-03-19T00:13:35.974Z,101137.66
2023-03-19T00:16:05.018Z,101138.47
2023-03-19T00:18:33.522Z,101132.44
2023-03-19T00:21:01.698Z,101138.69
2023-03-19T00:23:29.901Z,101132.72
2023-03-19T00:25:57.771Z,101127.75
2023-03-19T00:28:26.666Z,101119.91
2023-03-19T00:30:55.989Z,101129.28
2023-03-19T00:33:24.224Z,101126.94
2023-03-19T00:35:52.368Z,101130.34
2023-03-19T00:38:20.765Z,101130.56
2023-03-19T00:40:48.663Z,101126.16
2023-03-19T00:43:16.838Z,101129.75
2023-03-19T00:45:45.163Z,101126.38
2023-03-19T00:48:14.000Z,101127.44
2023-03-19T00:50:41.974Z,101132.63
2023-03-19T00:53:10.440Z,101128.44
2023-03-19T00:55:38.726Z,101135.25
2023-03-19T00:58:06.947Z,101131.03
2023-03-19T01:00:37.583Z,101130.25
2023-03-19T01:03:06.716Z,101133.88
2023-03-19T01:08:04.818Z,101127.12
2023-03-19T01:10:35.239Z,101134.94
2023-03-19T01:13:04.984Z,101126.31
2023-03-19T01:15:39.994Z,101134.12
2023-03-19T01:18:09.130Z,101131.75
2023-03-19T01:20:39.372Z,101132.56
2023-03-19T01:23:08.810Z,101134.34
2023-03-19T01:25:39.703Z,101131.97
2023-03-19T01:28:08.001Z,101136.41
2023-03-19T01:30:37.343Z,101133.81
2023-03-19T01:33:08.227Z,101135.63
2023-03-19T01:35:37.122Z,101137.44
2023-03-19T01:38:05.945Z,101136.62
2023-03-19T01:40:34.522Z,101137.69
2023-03-19T01:43:19.651Z,101135.84
2023-03-19T01:45:51.439Z,101138.47
2023-03-19T01:48:27.692Z,101135.31
2023-03-19T01:50:58.253Z,101137.12
2023-03-19T01:53:31.947Z,101133.72
2023-03-19T01:56:07.209Z,101132.94
2023-03-19T01:58:36.960Z,101132.16
2023-03-19T02:01:06.215Z,101132.94
2023-03-19T02:03:36.490Z,101132.41
2023-03-19T02:06:05.275Z,101131.59
2023-03-19T02:08:35.939Z,101138.63
2023-03-19T02:11:05.698Z,101138.63
2023-03-19T02:13:35.197Z,101143.81
2023-03-19T02:16:04.417Z,101144.06
2023-03-19T02:18:33.442Z,101146.66
2023-03-19T02:21:17.666Z,101144.06
2023-03-19T02:23:50.003Z,101149.50
2023-03-19T02:26:21.847Z,101147.16
2023-03-19T02:28:52.325Z,101152.37
2023-03-19T02:31:22.646Z,101155.53
2023-03-19T02:34:02.421Z,101149.75
2023-03-19T02:36:39.167Z,101153.38
2023-03-19T02:39:13.419Z,101155.19
2023-03-19T02:41:43.061Z,101151.78
2023-03-19T02:44:12.905Z,101151.25
2023-03-19T02:46:41.670Z,101152.00
2023-03-19T02:49:10.093Z,101152.28
2023-03-19T02:51:38.976Z,101152.28
2023-03-19T02:54:07.837Z,101150.69
2023-03-19T02:56:35.988Z,101148.87
2023-03-19T02:59:04.624Z,101146.50
2023-03-19T03:01:32.846Z,101145.47
2023-03-19T03:04:00.802Z,101150.69
2023-03-19T03:06:28.827Z,101149.09
2023-03-19T03:08:57.566Z,101149.09
2023-03-19T03:11:26.371Z,101142.31
2023-03-19T03:13:54.269Z,101135.28
2023-03-19T03:16:22.935Z,101140.72
2023-03-19T03:18:51.446Z,101143.34
2023-03-19T03:21:21.625Z,101150.12
2023-03-19T03:23:50.239Z,101145.16
2023-03-19T03:26:18.355Z,101144.38
2023-03-19T03:28:46.708Z,101140.97
2023-03-19T03:31:15.062Z,101141.78
2023-03-19T03:33:43.864Z,101144.63
2023-03-19T03:36:12.468Z,101140.19
2023-03-19T03:38:41.697Z,101133.38
2023-03-19T03:41:09.695Z,101129.22
2023-03-19T03:43:37.591Z,101124.00
2023-03-19T03:46:06.150Z,101130.22
2023-03-19T03:48:35.273Z,101130.22
2023-03-19T03:51:04.578Z,101134.66
2023-03-19T03:53:33.614Z,101133.88
2023-03-19T03:56:02.530Z,101138.28
2023-03-19T03:58:30.917Z,101134.91
2023-03-19T04:00:59.587Z,101138.50
2023-03-19T04:03:28.228Z,101136.94
2023-03-19T04:05:56.809Z,101130.97
2023-03-19T04:08:24.863Z,101132.75
2023-03-19T04:10:52.981Z,101125.97
2023-03-19T04:13:21.651Z,101131.97
2023-03-19T04:15:49.744Z,101134.03
2023-03-19T04:18:18.076Z,101121.78
2023-03-19T04:20:46.517Z,101125.44
2023-03-19T04:23:14.406Z,101124.63
2023-03-19T04:25:42.865Z,101126.44
2023-03-19T04:28:10.853Z,101116.03
2023-03-19T04:30:39.576Z,101122.25
2023-03-19T04:33:08.182Z,101125.91
2023-03-19T04:35:36.488Z,101125.91
2023-03-19T04:38:05.590Z,101116.50
2023-03-19T04:40:34.598Z,101117.53
2023-03-19T04:43:02.975Z,101116.72
2023-03-19T04:45:34.428Z,101117.53
2023-03-19T04:48:02.583Z,101112.34
2023-03-19T04:50:30.878Z,101107.34
2023-03-19T04:52:59.969Z,101112.56
2023-03-19T04:55:28.250Z,101113.34
2023-03-19T04:57:56.821Z,101115.94
2023-03-19T05:00:28.635Z,101114.94
2023-03-19T05:02:57.905Z,101120.12
2023-03-19T05:05:26.466Z,101120.12
2023-03-19T05:07:54.826Z,101116.72
2023-03-19T05:10:22.827Z,101117.53
2023-03-19T05:12:51.294Z,101115.47
2023-03-19T05:15:19.480Z,101118.09
2023-03-19T05:17:50.044Z,101110.28
2023-03-19T05:20:19.672Z,101106.62
2023-03-19T05:22:53.648Z,101113.66
2023-03-19T05:25:22.402Z,101110.81
2023-03-19T05:27:50.396Z,101110.81
2023-03-19T05:30:19.234Z,101109.81
2023-03-19T05:32:49.275Z,101106.41
2023-03-19T05:35:19.639Z,101097.59
2023-03-19T05:37:48.283Z,101105.94
2023-03-19T05:40:16.748Z,101108.53
2023-03-19T05:42:44.896Z,101112.72
2023-03-19T05:45:14.227Z,101112.47
2023-03-19T05:47:43.192Z,101109.62
2023-03-19T05:50:14.132Z,101112.00
2023-03-19T05:52:44.473Z,101118.34
2023-03-19T05:55:12.622Z,101120.44
2023-03-19T05:57:41.314Z,101116.38
2023-03-19T06:00:11.356Z,101117.69
2023-03-19T06:02:41.777Z,101126.38
2023-03-19T06:05:12.236Z,101123.31
2023-03-19T06:07:40.460Z,101115.25
2023-03-19T06:10:09.539Z,101118.63
2023-03-19T06:12:38.114Z,101114.00
2023-03-19T06:15:07.654Z,101120.78
2023-03-19T06:17:39.277Z,101120.78
2023-03-19T06:20:07.966Z,101125.53
2023-03-19T06:22:36.328Z,101123.94
2023-03-19T06:25:06.804Z,101127.12
2023-03-19T06:27:35.996Z,101120.31
2023-03-19T06:30:09.178Z,101121.91
2023-03-19T06:32:38.546Z,101116.94
2023-03-19T06:35:08.823Z,101125.53
2023-03-19T06:37:37.874Z,101121.09
2023-03-19T06:40:06.501Z,101127.12
2023-03-19T06:42:35.079Z,101127.12
2023-03-19T06:45:03.662Z,101125.28
2023-03-19T06:47:31.668Z,101138.31
2023-03-19T06:50:01.090Z,101138.84
2023-03-19T06:52:29.075Z,101140.44
2023-03-19T06:54:56.945Z,101141.78
2023-03-19T06:57:25.153Z,101147.00
2023-03-19T06:59:53.552Z,101144.94
2023-03-19T07:02:22.341Z,101146.53
2023-03-19T07:04:50.995Z,101149.66
2023-03-19T07:07:19.397Z,101149.44
2023-03-19T07:09:47.238Z,101149.97
2023-03-19T07:12:15.921Z,101148.72
2023-03-19T07:14:43.999Z,101150.84
2023-03-19T07:17:11.771Z,101152.97
2023-03-19T07:19:39.944Z,101154.56
2023-03-19T07:22:07.815Z,101147.84
2023-03-19T07:24:36.468Z,101152.81
2023-03-19T07:27:05.044Z,101157.59
2023-03-19T07:29:33.087Z,101158.91
2023-03-19T07:32:01.212Z,101158.44
2023-03-19T07:34:31.711Z,101157.16
2023-03-19T07:36:59.545Z,101164.28
2023-03-19T07:39:27.792Z,101156.94
2023-03-19T07:41:56.147Z,101160.41
2023-03-19T07:44:24.336Z,101163.56
2023-03-19T07:46:52.365Z,101167.25
2023-03-19T07:49:20.588Z,101163.94
2023-03-19T07:51:48.996Z,101170.25
2023-03-19T07:54:17.091Z,101165.56
2023-03-19T07:56:45.476Z,101164.78
2023-03-19T07:59:13.329Z,101165.94
2023-03-19T08:01:41.507Z,101163.09
2023-03-19T08:04:09.907Z,101165.28
2023-03-19T08:06:38.687Z,101157.59
2023-03-19T08:09:07.072Z,101164.12
2023-03-19T08:11:35.912Z,101165.53
2023-03-19T08:14:04.158Z,101160.88
2023-03-19T08:16:32.298Z,101152.50
2023-03-19T08:19:00.648Z,101157.22
2023-03-19T08:21:29.905Z,101158.31
2023-03-19T08:23:57.888Z,101150.25
2023-03-19T08:26:26.440Z,101150.84
2023-03-19T08:28:55.355Z,101141.78
2023-03-19T08:31:23.409Z,101146.88
2023-03-19T08:33:51.819Z,101142.03
2023-03-19T08:36:19.776Z,101139.16
2023-03-19T08:38:47.951Z,101131.03
2023-03-19T08:41:16.579Z,101130.78
2023-03-19T08:43:44.703Z,101130.88
2023-03-19T08:46:16.568Z,101132.28
2023-03-19T08:48:45.109Z,101125.56
2023-03-19T08:51:13.929Z,101119.72
2023-03-19T08:53:41.814Z,101126.16
2023-03-19T09:11:37.091Z,101091.34
2023-03-19T09:14:05.911Z,101091.34
2023-03-19T09:16:36.653Z,101091.53
2023-03-19T09:19:06.365Z,101093.38
2023-03-19T09:21:34.571Z,101084.78
2023-03-19T09:24:02.671Z,101091.31
2023-03-19T09:26:31.296Z,101089.59
2023-03-19T09:28:59.841Z,101075.13
2023-03-19T09:31:29.661Z,101084.16
2023-03-19T09:34:01.841Z,101069.28
2023-03-19T09:36:29.710Z,101070.97
2023-03-19T09:38:57.596Z,101068.81
2023-03-19T09:41:31.574Z,101062.41
2023-03-19T09:44:03.290Z,101062.00
2023-03-19T09:46:51.571Z,101064.47
2023-03-19T09:49:32.843Z,101058.06
2023-03-19T09:52:28.542Z,101051.44
2023-03-19T09:54:59.171Z,101045.62
2023-03-19T09:57:29.935Z,101057.41
2023-03-19T09:59:57.748Z,101044.78
2023-03-19T10:02:42.536Z,101044.53
2023-03-19T10:05:25.926Z,101044.88
2023-03-19T10:08:11.666Z,101052.00
2023-03-19T10:11:16.528Z,101050.97
2023-03-19T10:14:07.490Z,101045.50
2023-03-19T10:16:40.211Z,101037.31
2023-03-19T10:19:12.976Z,101045.97
2023-03-19T10:21:58.489Z,101037.88
2023-03-19T10:24:40.554Z,101030.69
2023-03-19T10:27:19.564Z,101033.22
2023-03-19T10:29:48.288Z,101030.06
2023-03-19T10:32:34.901Z,101023.28
2023-03-19T10:35:13.141Z,101024.53
2023-03-19T10:37:41.438Z,101023.94
2023-03-19T10:40:22.144Z,101023.75
2023-03-19T10:43:13.665Z,101017.25
2023-03-19T10:45:41.996Z,101015.06
2023-03-19T10:48:15.609Z,101012.69
2023-03-19T10:50:51.254Z,101015.56
2023-03-19T10:53:19.326Z,101010.91
2023-03-19T10:56:07.729Z,101014.03
2023-03-19T10:58:37.588Z,101005.34
2023-03-19T11:01:12.188Z,101003.59
2023-03-19T11:04:00.694Z,100999.22
2023-03-19T11:06:33.482Z,100992.69
2023-03-19T11:09:03.704Z,100988.50
2023-03-19T11:11:36.842Z,100984.69
2023-03-19T11:14:17.313Z,100976.78
2023-03-19T11:17:02.802Z,100974.22
2023-03-19T11:19:39.189Z,100969.22
2023-03-19T11:22:07.679Z,100958.56
2023-03-19T11:24:40.894Z,100961.63
2023-03-19T11:27:11.922Z,100964.84
2023-03-19T11:29:43.776Z,100952.66
2023-03-19T11:32:57.504Z,100948.13
2023-03-19T11:35:31.522Z,100947.22
2023-03-19T11:38:02.557Z,100945.03
2023-03-19T11:40:37.593Z,100950.50
2023-03-19T11:43:42.925Z,100943.78
2023-03-19T11:46:14.331Z,100945.28
2023-03-19T11:49:15.825Z,100936.97
2023-03-19T11:51:51.762Z,100945.19
2023-03-19T11:54:25.536Z,100938.91
2023-03-19T11:57:04.644Z,100934.75
2023-03-19T11:59:56.495Z,100933.66
2023-03-19T12:02:51.763Z,100927.41
2023-03-19T12:05:36.815Z,100923.28
2023-03-19T12:08:13.561Z,100922.16
2023-03-19T12:10:54.226Z,100918.78
2023-03-19T12:13:51.431Z,100926.41
2023-03-19T12:16:57.342Z,100912.84
2023-03-19T12:19:50.919Z,100914.19
2023-03-19T12:22:31.663Z,100916.94
2023-03-19T12:25:37.145Z,100911.59
2023-03-19T12:28:12.580Z,100904.06
2023-03-19T12:30:45.447Z,100907.91
2023-03-19T12:33:38.466Z,100895.56
2023-03-19T12:36:12.382Z,100891.69
2023-03-19T12:38:48.451Z,100881.56
2023-03-19T12:41:24.405Z,100891.31
2023-03-19T12:44:06.435Z,100878.69
2023-03-19T12:46:38.975Z,100876.19
2023-03-19T12:49:25.850Z,100873.47
2023-03-19T12:51:59.921Z,100865.16
2023-03-19T12:54:34.793Z,100860.94
2023-03-19T12:57:17.600Z,100860.97
2023-03-19T12:59:55.767Z,100864.66
2023-03-19T13:02:51.002Z,100854.31
2023-03-19T13:05:28.868Z,100853.16
2023-03-19T13:08:13.593Z,100850.84
2023-03-19T13:10:41.723Z,100841.66
2023-03-19T13:13:38.752Z,100845.16
2023-03-19T13:16:25.730Z,100841.53
2023-03-19T13:19:05.739Z,100837.88
2023-03-19T13:21:37.801Z,100835.12
2023-03-19T13:24:24.617Z,100829.34
2023-03-19T13:26:55.136Z,100829.13
2023-03-19T13:29:28.113Z,100815.81
2023-03-19T13:32:06.697Z,100819.59
2023-03-19T13:34:37.174Z,100817.47
2023-03-19T13:37:26.901Z,100816.56
2023-03-19T13:39:55.855Z,100811.00
2023-03-19T13:42:43.863Z,100809.19
2023-03-19T13:45:34.698Z,100802.34
2023-03-19T13:48:33.390Z,100805.66
2023-03-19T13:51:03.732Z,100794.19
2023-03-19T13:53:36.975Z,100792.03
2023-03-19T13:56:22.496Z,100786.78
2023-03-19T13:59:15.236Z,100783.00
2023-03-19T14:01:45.055Z,100790.31
2023-03-19T14:04:36.886Z,100783.00
2023-03-19T14:07:42.722Z,100782.63
2023-03-19T14:10:20.529Z,100776.37
2023-03-19T14:12:50.064Z,100778.00
2023-03-19T14:15:28.192Z,100774.66
2023-03-19T14:17:58.900Z,100774.06
2023-03-19T14:20:39.787Z,100770.19
2023-03-19T14:23:08.888Z,100771.03
2023-03-19T14:25:58.539Z,100771.34
2023-03-19T14:28:45.663Z,100766.06
2023-03-19T14:31:26.509Z,100766.81
2023-03-19T14:34:19.570Z,100763.75
2023-03-19T14:37:18.620Z,100752.31
2023-03-19T14:39:52.941Z,100751.66
2023-03-19T14:42:43.472Z,100747.41
2023-03-19T14:45:36.765Z,100753.75
2023-03-19T14:48:39.307Z,100748.28
2023-03-19T14:51:32.015Z,100745.09
2023-03-19T14:54:12.700Z,100741.78
2023-03-19T14:56:40.810Z,100731.91
2023-03-19T14:59:13.825Z,100737.97
2023-03-19T15:01:48.263Z,100727.81
2023-03-19T15:04:18.410Z,100735.06
2023-03-19T15:06:59.334Z,100728.50
2023-03-19T15:09:32.448Z,100731.81
2023-03-19T15:12:22.473Z,100732.84
2023-03-19T15:15:12.704Z,100735.97
2023-03-19T15:17:41.686Z,100735.16
2023-03-19T15:20:18.898Z,100743.31
2023-03-19T15:22:59.785Z,100752.06
2023-03-19T15:25:28.585Z,100754.69
2023-03-19T15:28:09.068Z,100750.16
2023-03-19T15:30:52.273Z,100752.47
2023-03-19T15:33:39.847Z,100745.31
2023-03-19T15:36:24.842Z,100755.34
2023-03-19T15:39:21.349Z,100744.84
2023-03-19T15:41:52.081Z,100746.00
2023-03-19T15:44:30.659Z,100752.56
2023-03-19T15:47:03.304Z,100748.84
2023-03-19T15:49:52.755Z,100750.47
2023-03-19T15:52:21.846Z,100750.97
2023-03-19T15:54:50.037Z,100748.34
2023-03-19T15:57:18.402Z,100747.50
2023-03-19T15:59:47.381Z,100743.94
2023-03-19T16:02:41.216Z,100745.75
2023-03-19T16:05:31.085Z,100743.91
2023-03-19T16:08:03.236Z,100742.66
2023-03-19T16:10:40.587Z,100738.72
2023-03-19T16:13:39.594Z,100742.88
2023-03-19T16:16:18.643Z,100754.75
2023-03-19T16:18:53.234Z,100758.25
2023-03-19T16:21:29.684Z,100762.78
2023-03-19T16:24:02.094Z,100762.06
2023-03-19T16:26:33.543Z,100760.25
2023-03-19T16:29:24.441Z,100761.88
2023-03-19T16:31:59.693Z,100760.59
2023-03-19T16:34:48.475Z,100779.00
2023-03-19T16:37:33.176Z,100774.88
2023-03-19T16:40:13.104Z,100779.13
2023-03-19T16:42:44.160Z,100777.34
2023-03-19T16:45:15.617Z,100769.78
2023-03-19T16:47:46.756Z,100776.13
2023-03-19T16:50:35.305Z,100774.31
2023-03-19T16:53:11.161Z,100782.97
2023-03-19T16:55:39.968Z,100777.22
2023-03-19T16:58:14.264Z,100782.00
2023-03-19T17:00:44.389Z,100774.69
2023-03-19T17:03:16.107Z,100772.09
2023-03-19T17:05:45.969Z,100772.09
2023-03-19T17:08:15.003Z,100776.34
2023-03-19T17:10:49.477Z,100777.66
2023-03-19T17:13:28.692Z,100771.66
2023-03-19T17:16:04.855Z,100772.19
2023-03-19T17:18:40.529Z,100772.22
2023-03-19T17:21:21.573Z,100775.91
2023-03-19T17:23:50.739Z,100773.81
2023-03-19T17:26:25.959Z,100777.25
2023-03-19T17:28:56.276Z,100774.62
2023-03-19T17:31:30.583Z,100771.69
2023-03-19T17:34:02.678Z,100769.37
2023-03-19T17:36:31.951Z,100764.69
2023-03-19T17:39:01.089Z,100769.41
2023-03-19T17:41:32.912Z,100780.69
2023-03-19T17:44:03.739Z,100778.59
2023-03-19T17:46:39.839Z,100788.53
2023-03-19T17:49:20.417Z,100787.53
2023-03-19T17:51:49.522Z,100782.56
2023-03-19T17:54:18.329Z,100787.53
2023-03-19T17:56:46.850Z,100789.63
2023-03-19T17:59:15.445Z,100788.59
2023-03-19T18:01:47.311Z,100794.06
2023-03-19T18:04:21.067Z,100794.34
2023-03-19T18:06:54.167Z,100798.53
2023-03-19T18:09:27.027Z,100801.44
2023-03-19T18:11:55.647Z,100799.06
2023-03-19T18:14:24.357Z,100795.41
2023-03-19T18:16:52.694Z,100791.22
2023-03-19T18:19:30.365Z,100800.66
2023-03-19T18:21:59.312Z,100801.69
2023-03-19T18:24:27.897Z,100798.81
2023-03-19T18:26:55.852Z,100800.16
2023-03-19T18:29:24.417Z,100796.22
2023-03-19T18:31:53.218Z,100787.06
2023-03-19T18:34:22.076Z,100781.06
2023-03-19T18:36:50.337Z,100782.37
2023-03-19T18:39:18.576Z,100775.59
2023-03-19T18:41:47.434Z,100783.94
2023-03-19T18:44:16.761Z,100790.22
2023-03-19T18:46:45.401Z,100793.09
2023-03-19T18:49:23.813Z,100790.72
2023-03-19T18:52:08.985Z,100786.06
2023-03-19T18:54:37.172Z,100789.69
2023-03-19T18:57:06.519Z,100786.31
2023-03-19T18:59:34.766Z,100787.59
2023-03-19T19:02:30.256Z,100789.44
2023-03-19T19:04:58.812Z,100786.06
2023-03-19T19:07:27.086Z,100787.09
2023-03-19T19:09:55.645Z,100788.16
2023-03-19T19:12:26.623Z,100793.37
2023-03-19T19:14:55.749Z,100790.22
2023-03-19T19:17:24.755Z,100791.28
2023-03-19T19:19:53.593Z,100791.53
2023-03-19T19:22:21.895Z,100794.16
2023-03-19T19:24:50.512Z,100795.19
2023-03-19T19:27:21.745Z,100797.03
2023-03-19T19:29:50.795Z,100801.72
2023-03-19T19:32:26.661Z,100802.50
2023-03-19T19:34:56.052Z,100804.34
2023-03-19T19:37:25.787Z,100809.56
2023-03-19T19:39:54.082Z,100804.34
2023-03-19T19:42:23.528Z,100803.81
2023-03-19T19:44:55.039Z,100807.22
2023-03-19T19:47:23.273Z,100804.84
2023-03-19T19:49:51.923Z,100807.47
2023-03-19T19:52:20.912Z,100805.88
2023-03-19T19:54:51.981Z,100801.72
2023-03-19T19:57:24.888Z,100800.94
2023-03-19T19:59:54.463Z,100804.59
2023-03-19T20:02:31.585Z,100807.47
2023-03-19T20:05:00.115Z,100801.47
2023-03-19T20:07:28.277Z,100805.91
2023-03-19T20:09:56.705Z,100805.63
2023-03-19T20:12:30.834Z,100800.69
2023-03-19T20:15:02.039Z,100800.13
2023-03-19T20:17:30.865Z,100807.72
2023-03-19T20:19:59.356Z,100806.19
2023-03-19T20:22:27.566Z,100801.97
2023-03-19T20:24:56.071Z,100797.53
2023-03-19T20:27:32.419Z,100799.63
2023-03-19T20:30:01.011Z,100803.28
2023-03-19T20:32:33.177Z,100801.47
2023-03-19T20:35:02.741Z,100798.06
2023-03-19T20:37:31.298Z,100797.25
2023-03-19T20:39:59.180Z,100799.87
2023-03-19T20:42:30.399Z,100794.91
2023-03-19T20:44:59.819Z,100791.50
2023-03-19T20:47:29.194Z,100794.91
2023-03-19T20:49:57.248Z,100795.19
2023-03-19T20:52:26.040Z,100798.84
2023-03-19T20:54:55.513Z,100792.84
2023-03-19T20:57:29.318Z,100789.16
2023-03-19T21:00:10.662Z,100788.63
2023-03-19T21:02:39.511Z,100789.41
2023-03-19T21:05:12.938Z,100788.63
2023-03-19T21:07:43.231Z,100786.03
2023-03-19T21:10:37.639Z,100787.06
2023-03-19T21:13:06.618Z,100787.06
2023-03-19T21:15:35.551Z,100784.44
2023-03-19T21:18:04.045Z,100782.91
2023-03-19T21:20:33.467Z,100789.16
2023-03-19T21:23:04.236Z,100786.53
2023-03-19T21:25:33.279Z,100789.41
2023-03-19T21:28:06.375Z,100786.03
2023-03-19T21:30:43.587Z,100788.63
2023-03-19T21:33:25.716Z,100787.09
2023-03-19T21:35:54.873Z,100789.69
2023-03-19T21:38:23.997Z,100794.13
2023-03-19T21:40:56.254Z,100787.34
2023-03-19T21:43:35.889Z,100785.75
2023-03-19T21:46:17.388Z,100785.75
2023-03-19T21:48:51.883Z,100795.44
2023-03-19T21:51:19.892Z,100789.41
2023-03-19T21:53:48.104Z,100785.22
2023-03-19T21:56:23.400Z,100790.72
2023-03-19T21:58:52.936Z,100782.87
2023-03-19T22:01:24.615Z,100776.06
2023-03-19T22:03:55.533Z,100775.28
2023-03-19T22:06:24.373Z,100782.34
2023-03-19T22:08:55.739Z,100777.91
2023-03-19T22:11:29.600Z,100778.16
2023-03-19T22:14:07.711Z,100769.56
2023-03-19T22:16:35.945Z,100770.31
2023-03-19T22:19:04.524Z,100775.56
2023-03-19T22:21:34.408Z,100771.38
2023-03-19T22:24:02.496Z,100772.41
2023-03-19T22:26:39.928Z,100767.44
2023-03-19T22:29:22.839Z,100774.47
2023-03-19T22:31:55.827Z,100768.47
2023-03-19T22:34:25.899Z,100768.47
2023-03-19T22:36:54.223Z,100772.91
2023-03-19T22:39:22.192Z,100775.00
2023-03-19T22:41:51.008Z,100776.56
2023-03-19T22:44:31.030Z,100777.59
2023-03-19T22:47:01.097Z,100782.81
2023-03-19T22:49:30.054Z,100780.47
2023-03-19T22:51:58.562Z,100771.84
2023-03-19T22:54:26.767Z,100770.28
2023-03-19T22:56:54.985Z,100768.47
2023-03-19T22:59:23.157Z,100768.72
2023-03-19T23:01:51.084Z,100763.50
2023-03-19T23:04:30.258Z,100761.12
2023-03-19T23:07:00.518Z,100759.31
2023-03-19T23:09:32.300Z,100753.31
2023-03-19T23:12:02.365Z,100757.75
2023-03-19T23:14:31.574Z,100760.38
2023-03-19T23:17:07.444Z,100763.75
2023-03-19T23:19:37.475Z,100762.97
2023-03-19T23:22:07.285Z,100762.97
2023-03-19T23:24:35.643Z,100759.56
2023-03-19T23:27:04.340Z,100759.56
2023-03-19T23:29:36.913Z,100754.34
2023-03-19T23:32:05.990Z,100766.63
2023-03-19T23:34:42.311Z,100761.66
2023-03-19T23:37:11.033Z,100761.66
2023-03-19T23:39:42.489Z,100765.03
2023-03-19T23:42:27.822Z,100761.66
2023-03-19T23:44:59.520Z,100766.09
2023-03-19T23:47:29.697Z,100763.50
2023-03-19T23:49:57.928Z,100761.91
2023-03-19T23:52:25.934Z,100762.97
2023-03-19T23:54:54.103Z,100761.91
2023-03-19T23:57:24.154Z,100764.53
2023-03-19T23:59:52.443Z,100757.75
